Time;durP1;ratioP1;P1;durP2;ratioP2;P2;SDS_P1;SDS_P2;PMS_P1;PMS_P2;Temp;Humidity;BMP_temperature;BMP_pressure;BME280_temperature;BME280_humidity;BME280_pressure;Samples;Min_cycle;Max_cycle;Signal;HPM_P1;HPM_P2
2022/08/16 00:03:02;;;;;;;3.03;1.35;;;;;;;;;;10562193;28;20024;-71
2022/08/16 00:08:03;;;;;;;2.00;1.50;;;;;;;;;;10558933;28;20107;-70
2022/08/16 00:13:08;;;;;;;1.40;1.30;;;;;;;;;;10554553;28;20039;-69
2022/08/16 00:18:09;;;;;;;2.75;1.35;;;;;;;;;;10561169;28;20028;-70
2022/08/16 00:23:11;;;;;;;1.45;1.35;;;;;;;;;;10581583;28;20519;-70
2022/08/16 00:28:12;;;;;;;4.70;1.60;;;;;;;;;;10566469;27;20500;-69
2022/08/16 00:33:13;;;;;;;1.92;1.40;;;;;;;;;;10581374;28;20032;-71
2022/08/16 00:38:14;;;;;;;1.92;1.40;;;;;;;;;;10539325;28;20081;-72
2022/08/16 00:43:24;;;;;;;1.58;1.10;;;;;;;;;;10560246;28;20032;-71
2022/08/16 00:48:26;;;;;;;2.25;1.40;;;;;;;;;;10577371;28;20027;-68
2022/08/16 00:53:27;;;;;;;1.30;1.20;;;;;;;;;;10551731;28;20058;-70
2022/08/16 00:58:29;;;;;;;1.40;1.30;;;;;;;;;;10566393;28;20442;-70
2022/08/16 01:03:31;;;;;;;2.55;1.30;;;;;;;;;;10568827;28;20035;-72
2022/08/16 01:08:34;;;;;;;1.67;1.20;;;;;;;;;;10553961;28;20286;-72
2022/08/16 01:13:37;;;;;;;3.67;1.50;;;;;;;;;;10573775;28;20038;-71
2022/08/16 01:19:00;;;;;;;1.70;1.20;;;;;;;;;;10563288;28;20062;-71
2022/08/16 01:24:28;;;;;;;1.95;1.48;;;;;;;;;;10579124;28;20119;-72
2022/08/16 01:29:40;;;;;;;2.13;1.45;;;;;;;;;;10551907;28;20025;-68
2022/08/16 01:34:41;;;;;;;2.53;1.40;;;;;;;;;;10577472;28;20032;-67
2022/08/16 01:39:42;;;;;;;1.55;1.10;;;;;;;;;;10576726;28;20114;-68
2022/08/16 01:44:43;;;;;;;2.95;1.40;;;;;;;;;;10559204;28;20031;-62
2022/08/16 01:49:43;;;;;;;1.30;1.00;;;;;;;;;;10564197;28;20031;-70
2022/08/16 01:54:45;;;;;;;2.05;1.40;;;;;;;;;;10567525;28;20020;-68
2022/08/16 01:59:45;;;;;;;3.13;1.55;;;;;;;;;;10558910;28;20030;-70
2022/08/16 02:04:46;;;;;;;1.55;1.08;;;;;;;;;;10554656;28;20050;-68
2022/08/16 02:09:47;;;;;;;2.35;1.30;;;;;;;;;;10563510;28;20467;-70
2022/08/16 02:14:48;;;;;;;1.30;1.20;;;;;;;;;;10560084;28;20031;-67
2022/08/16 02:19:50;;;;;;;1.33;1.10;;;;;;;;;;10576181;28;20034;-70
2022/08/16 02:24:50;;;;;;;2.50;1.73;;;;;;;;;;10574973;28;20066;-69
2022/08/16 02:29:51;;;;;;;1.52;1.30;;;;;;;;;;10576094;28;20356;-71
2022/08/16 02:34:52;;;;;;;1.95;1.20;;;;;;;;;;10575540;27;20011;-69
2022/08/16 02:39:52;;;;;;;1.23;1.00;;;;;;;;;;10547645;28;20494;-71
2022/08/16 02:44:53;;;;;;;2.38;1.40;;;;;;;;;;10560946;28;20087;-70
2022/08/16 02:49:53;;;;;;;1.75;1.25;;;;;;;;;;10557209;28;20360;-63
2022/08/16 02:54:54;;;;;;;3.13;1.10;;;;;;;;;;10563794;28;20383;-69
2022/08/16 02:59:54;;;;;;;1.58;1.20;;;;;;;;;;10548563;28;20176;-65
2022/08/16 03:04:55;;;;;;;1.77;1.52;;;;;;;;;;10543328;22;20045;-60
2022/08/16 03:09:56;;;;;;;2.00;1.27;;;;;;;;;;10487593;28;20024;-60
2022/08/16 03:14:56;;;;;;;2.72;1.23;;;;;;;;;;10487009;28;20025;-60
2022/08/16 03:19:57;;;;;;;3.25;1.20;;;;;;;;;;10482194;28;20032;-60
2022/08/16 03:25:00;;;;;;;1.90;1.38;;;;;;;;;;10461909;28;20431;-58
2022/08/16 03:30:11;;;;;;;1.23;0.98;;;;;;;;;;10490062;28;20107;-58
2022/08/16 03:35:11;;;;;;;1.60;1.00;;;;;;;;;;10476537;28;20027;-58
2022/08/16 03:40:14;;;;;;;1.80;1.20;;;;;;;;;;10471089;28;20028;-58
2022/08/16 03:45:15;;;;;;;1.33;1.20;;;;;;;;;;10477982;28;20039;-58
2022/08/16 03:50:16;;;;;;;1.33;1.10;;;;;;;;;;10475302;28;20036;-57
2022/08/16 03:55:17;;;;;;;1.38;1.27;;;;;;;;;;10488802;28;20573;-57
2022/08/16 04:00:26;;;;;;;1.23;1.13;;;;;;;;;;10487263;28;20040;-58
2022/08/16 04:05:27;;;;;;;2.20;1.30;;;;;;;;;;10484732;28;20040;-58
2022/08/16 04:10:29;;;;;;;3.20;1.10;;;;;;;;;;10488735;28;20059;-58
2022/08/16 04:15:30;;;;;;;3.25;1.20;;;;;;;;;;10469823;28;20085;-58
2022/08/16 04:20:32;;;;;;;2.78;1.40;;;;;;;;;;10474053;28;20445;-59
2022/08/16 04:25:34;;;;;;;1.30;1.20;;;;;;;;;;10488779;28;20033;-59
2022/08/16 04:30:35;;;;;;;1.73;0.98;;;;;;;;;;10485424;28;20112;-57
2022/08/16 04:35:35;;;;;;;1.13;1.02;;;;;;;;;;10488600;28;20017;-57
2022/08/16 04:40:37;;;;;;;1.83;1.20;;;;;;;;;;10485034;28;20060;-57
2022/08/16 04:45:38;;;;;;;2.30;1.20;;;;;;;;;;10488380;28;20107;-58
2022/08/16 04:50:39;;;;;;;1.90;1.00;;;;;;;;;;10488149;28;20081;-57
2022/08/16 04:55:39;;;;;;;2.97;1.10;;;;;;;;;;10489160;28;20059;-57
2022/08/16 05:00:40;;;;;;;1.65;1.00;;;;;;;;;;10488056;28;20035;-56
2022/08/16 05:05:41;;;;;;;1.80;0.90;;;;;;;;;;10491681;28;20223;-58
2022/08/16 05:10:42;;;;;;;1.13;0.85;;;;;;;;;;10495235;28;20036;-58
2022/08/16 05:15:42;;;;;;;1.10;1.00;;;;;;;;;;10489940;28;20033;-57
2022/08/16 05:20:43;;;;;;;1.60;1.20;;;;;;;;;;10491824;28;20047;-57
2022/08/16 05:25:44;;;;;;;1.35;1.23;;;;;;;;;;10491172;28;20028;-58
2022/08/16 05:30:44;;;;;;;2.97;1.10;;;;;;;;;;10494365;28;20592;-57
2022/08/16 05:35:46;;;;;;;1.38;1.10;;;;;;;;;;10492861;28;20391;-58
2022/08/16 05:40:47;;;;;;;1.48;1.10;;;;;;;;;;10491451;28;20054;-57
2022/08/16 05:45:48;;;;;;;1.13;1.00;;;;;;;;;;10494118;28;20039;-58
2022/08/16 05:50:49;;;;;;;1.90;1.00;;;;;;;;;;10483216;28;20025;-57
2022/08/16 05:55:50;;;;;;;4.13;1.15;;;;;;;;;;10493715;28;20492;-58
2022/08/16 06:00:50;;;;;;;1.35;1.10;;;;;;;;;;10488329;28;20043;-57
2022/08/16 06:05:52;;;;;;;1.00;1.00;;;;;;;;;;10485415;28;20052;-57
2022/08/16 06:10:53;;;;;;;1.90;1.20;;;;;;;;;;10486286;28;20110;-59
2022/08/16 06:15:53;;;;;;;1.20;1.10;;;;;;;;;;10493381;28;20032;-57
2022/08/16 06:20:54;;;;;;;0.80;0.80;;;;;;;;;;10478093;28;20529;-55
2022/08/16 06:25:55;;;;;;;1.25;1.00;;;;;;;;;;10486955;28;20021;-55
2022/08/16 06:30:55;;;;;;;1.02;0.90;;;;;;;;;;10485661;28;20032;-55
2022/08/16 06:35:56;;;;;;;2.83;1.02;;;;;;;;;;10484878;28;20526;-54
2022/08/16 06:40:57;;;;;;;1.60;1.17;;;;;;;;;;10481299;28;20032;-55
2022/08/16 06:45:59;;;;;;;2.25;1.25;;;;;;;;;;10473476;28;20396;-56
2022/08/16 06:51:07;;;;;;;1.08;0.98;;;;;;;;;;10467644;28;20087;-56
2022/08/16 06:56:08;;;;;;;1.23;1.05;;;;;;;;;;10479954;28;20029;-57
2022/08/16 07:01:09;;;;;;;1.17;1.00;;;;;;;;;;10471083;28;20033;-56
2022/08/16 07:06:10;;;;;;;2.45;1.10;;;;;;;;;;10472649;28;20036;-58
2022/08/16 07:11:13;;;;;;;1.92;0.98;;;;;;;;;;10483972;28;20091;-59
2022/08/16 07:16:15;;;;;;;2.35;1.05;;;;;;;;;;10482960;28;20024;-59
2022/08/16 07:21:16;;;;;;;1.98;1.00;;;;;;;;;;10474061;28;20056;-55
2022/08/16 07:26:23;;;;;;;0.90;0.80;;;;;;;;;;10470326;28;20024;-57
2022/08/16 07:31:23;;;;;;;2.47;1.20;;;;;;;;;;10486946;28;20031;-57
2022/08/16 07:36:25;;;;;;;1.05;0.95;;;;;;;;;;10479748;28;20051;-58
2022/08/16 07:41:25;;;;;;;2.53;1.17;;;;;;;;;;10487631;28;20267;-59
2022/08/16 07:46:26;;;;;;;1.75;1.10;;;;;;;;;;10473682;28;20267;-58
2022/08/16 07:51:27;;;;;;;1.15;0.98;;;;;;;;;;10466788;28;20533;-59
2022/08/16 07:56:28;;;;;;;4.10;1.33;;;;;;;;;;10482750;28;20024;-55
2022/08/16 08:01:30;;;;;;;1.15;1.02;;;;;;;;;;10453618;28;20067;-57
2022/08/16 08:06:32;;;;;;;1.33;1.00;;;;;;;;;;10474421;28;20513;-57
2022/08/16 08:11:32;;;;;;;1.75;1.23;;;;;;;;;;10489029;28;20388;-59
2022/08/16 08:16:33;;;;;;;1.38;1.00;;;;;;;;;;10469628;28;20029;-59
2022/08/16 08:21:34;;;;;;;1.02;0.93;;;;;;;;;;10485624;28;20264;-59
2022/08/16 08:26:35;;;;;;;1.23;1.13;;;;;;;;;;10481594;28;20219;-57
2022/08/16 08:31:37;;;;;;;10.80;1.35;;;;;;;;;;10472826;28;20025;-57
2022/08/16 08:36:38;;;;;;;1.48;0.90;;;;;;;;;;10488558;28;20480;-56
2022/08/16 08:41:40;;;;;;;0.82;0.82;;;;;;;;;;10492924;28;20025;-59
2022/08/16 08:46:41;;;;;;;1.30;1.10;;;;;;;;;;10487031;28;20115;-60
2022/08/16 08:51:41;;;;;;;3.15;1.02;;;;;;;;;;10494494;28;20028;-58
2022/08/16 08:56:42;;;;;;;1.33;0.85;;;;;;;;;;10484532;28;20055;-58
2022/08/16 09:01:44;;;;;;;1.98;1.20;;;;;;;;;;10483777;28;20090;-58
2022/08/16 09:06:45;;;;;;;1.20;1.02;;;;;;;;;;10490941;28;20044;-57
2022/08/16 09:11:46;;;;;;;1.10;1.00;;;;;;;;;;10489695;28;20029;-58
2022/08/16 09:16:47;;;;;;;1.13;1.05;;;;;;;;;;10480739;28;20032;-58
2022/08/16 09:21:49;;;;;;;0.90;0.90;;;;;;;;;;10493922;28;20020;-58
2022/08/16 09:26:49;;;;;;;1.67;1.20;;;;;;;;;;10492269;28;21304;-57
2022/08/16 09:31:50;;;;;;;1.63;1.17;;;;;;;;;;10485599;28;20027;-56
2022/08/16 09:36:51;;;;;;;3.13;1.00;;;;;;;;;;10488481;28;20031;-59
2022/08/16 09:41:55;;;;;;;0.85;0.80;;;;;;;;;;10483394;28;20036;-58
2022/08/16 09:46:56;;;;;;;0.93;0.82;;;;;;;;;;10484105;28;20024;-57
2022/08/16 09:51:57;;;;;;;1.20;1.00;;;;;;;;;;10472834;28;20385;-57
2022/08/16 09:56:57;;;;;;;2.65;0.80;;;;;;;;;;10491959;28;20081;-58
2022/08/16 10:02:00;;;;;;;1.55;0.90;;;;;;;;;;10484029;28;20021;-58
2022/08/16 10:07:03;;;;;;;1.35;0.90;;;;;;;;;;10469088;28;20036;-54
2022/08/16 10:17:23;;;;;;;1.15;1.05;;;;;;;;;;10489565;28;20036;-59
2022/08/16 10:22:24;;;;;;;1.33;1.00;;;;;;;;;;10491678;28;20438;-57
2022/08/16 10:27:24;;;;;;;1.00;0.90;;;;;;;;;;10490758;28;20043;-58
2022/08/16 10:32:25;;;;;;;1.02;0.90;;;;;;;;;;10490093;28;20030;-58
2022/08/16 10:37:26;;;;;;;1.08;0.98;;;;;;;;;;10489539;28;20028;-58
2022/08/16 10:42:27;;;;;;;0.82;0.82;;;;;;;;;;10484892;28;20016;-58
2022/08/16 10:47:28;;;;;;;0.90;0.90;;;;;;;;;;10490092;28;20124;-58
2022/08/16 10:52:31;;;;;;;2.00;1.00;;;;;;;;;;10475228;28;20047;-56
2022/08/16 10:57:32;;;;;;;1.27;0.82;;;;;;;;;;10489099;28;20105;-59
2022/08/16 11:02:33;;;;;;;0.80;0.80;;;;;;;;;;10480527;28;20081;-57
2022/08/16 11:07:33;;;;;;;2.22;0.90;;;;;;;;;;10486068;28;20503;-58
2022/08/16 11:12:34;;;;;;;1.17;0.80;;;;;;;;;;10490190;28;20479;-56
2022/08/16 11:17:35;;;;;;;1.00;0.93;;;;;;;;;;10488699;28;20180;-58
2022/08/16 11:22:36;;;;;;;0.77;0.77;;;;;;;;;;10490141;28;20111;-57
2022/08/16 11:27:37;;;;;;;1.40;0.90;;;;;;;;;;10482133;28;20030;-57
2022/08/16 11:32:38;;;;;;;1.50;1.10;;;;;;;;;;10489521;28;20039;-58
2022/08/16 11:37:41;;;;;;;3.50;1.10;;;;;;;;;;10475691;28;20392;-58
2022/08/16 11:42:42;;;;;;;1.30;1.20;;;;;;;;;;10489135;28;20032;-58
2022/08/16 11:47:42;;;;;;;2.47;1.50;;;;;;;;;;10483603;28;20028;-57
2022/08/16 11:52:43;;;;;;;1.10;1.00;;;;;;;;;;10489071;28;20029;-58
2022/08/16 11:57:44;;;;;;;1.45;1.30;;;;;;;;;;10485671;28;20032;-56
2022/08/16 12:02:44;;;;;;;1.40;1.30;;;;;;;;;;10482304;28;20044;-57
2022/08/16 12:07:45;;;;;;;2.50;1.50;;;;;;;;;;10486285;28;20036;-57
2022/08/16 12:12:46;;;;;;;2.78;1.55;;;;;;;;;;10486537;28;20028;-57
2022/08/16 12:17:47;;;;;;;2.72;1.40;;;;;;;;;;10496781;28;20025;-58
2022/08/16 12:22:49;;;;;;;1.63;1.48;;;;;;;;;;10485171;28;20043;-58
2022/08/16 12:27:51;;;;;;;2.03;1.48;;;;;;;;;;10496849;28;20074;-58
2022/08/16 12:32:51;;;;;;;4.97;1.95;;;;;;;;;;10494731;28;20036;-56
2022/08/16 12:37:52;;;;;;;4.03;1.90;;;;;;;;;;10484000;28;20376;-58
2022/08/16 12:42:56;;;;;;;1.58;1.42;;;;;;;;;;10483299;28;20039;-57
2022/08/16 12:53:17;;;;;;;1.80;1.63;;;;;;;;;;10495873;28;20029;-58
2022/08/16 12:58:18;;;;;;;1.83;1.52;;;;;;;;;;10495206;28;20078;-58
2022/08/16 13:03:19;;;;;;;2.45;1.70;;;;;;;;;;10494100;28;20172;-57
2022/08/16 13:08:20;;;;;;;1.60;1.50;;;;;;;;;;10491253;28;20169;-58
2022/08/16 13:13:23;;;;;;;1.98;1.50;;;;;;;;;;10495258;28;20040;-58
2022/08/16 13:18:28;;;;;;;1.83;1.50;;;;;;;;;;10482158;28;20037;-57
2022/08/16 13:23:29;;;;;;;2.47;1.60;;;;;;;;;;10490399;28;20082;-58
2022/08/16 13:28:30;;;;;;;1.60;1.50;;;;;;;;;;10490004;28;20040;-57
2022/08/16 13:33:36;;;;;;;2.88;1.63;;;;;;;;;;10484852;28;20036;-57
2022/08/16 13:38:37;;;;;;;1.92;1.73;;;;;;;;;;10470574;28;20112;-58
2022/08/16 13:43:39;;;;;;;4.75;1.67;;;;;;;;;;10487244;28;20036;-57
2022/08/16 13:48:40;;;;;;;1.67;1.58;;;;;;;;;;10480937;28;20036;-57
2022/08/16 13:53:40;;;;;;;1.52;1.42;;;;;;;;;;10489949;28;20109;-57
2022/08/16 13:58:41;;;;;;;2.67;1.58;;;;;;;;;;10486442;28;20078;-57
2022/08/16 14:03:42;;;;;;;1.42;1.30;;;;;;;;;;10487353;28;20033;-57
2022/08/16 14:08:42;;;;;;;1.40;1.30;;;;;;;;;;10490599;28;20037;-58
2022/08/16 14:13:43;;;;;;;1.98;1.50;;;;;;;;;;10483313;28;20044;-58
2022/08/16 14:18:44;;;;;;;1.60;1.50;;;;;;;;;;10483517;28;20025;-58
2022/08/16 14:23:44;;;;;;;1.58;1.48;;;;;;;;;;10483862;28;20037;-58
2022/08/16 14:28:45;;;;;;;1.45;1.35;;;;;;;;;;10473220;28;20032;-58
2022/08/16 14:33:45;;;;;;;2.33;1.40;;;;;;;;;;10491353;28;20090;-58
2022/08/16 14:38:46;;;;;;;1.60;1.50;;;;;;;;;;10479147;28;20104;-58
2022/08/16 14:43:47;;;;;;;1.50;1.40;;;;;;;;;;10489808;28;20041;-57
2022/08/16 14:48:47;;;;;;;1.63;1.50;;;;;;;;;;10490367;28;20040;-58
2022/08/16 14:53:48;;;;;;;1.30;1.20;;;;;;;;;;10490547;28;20036;-58
2022/08/16 14:58:49;;;;;;;1.60;1.50;;;;;;;;;;10480434;28;20111;-58
2022/08/16 15:03:49;;;;;;;2.40;1.30;;;;;;;;;;10489522;28;20055;-58
2022/08/16 15:08:50;;;;;;;3.28;1.80;;;;;;;;;;10481217;28;20021;-58
2022/08/16 15:13:51;;;;;;;1.95;1.30;;;;;;;;;;10472550;28;20028;-58
2022/08/16 15:18:52;;;;;;;2.78;1.20;;;;;;;;;;10484716;28;20623;-59
2022/08/16 15:23:53;;;;;;;1.67;1.58;;;;;;;;;;10476799;28;20081;-58
2022/08/16 15:28:53;;;;;;;1.70;1.52;;;;;;;;;;10461494;28;20066;-58
2022/08/16 15:33:54;;;;;;;2.25;1.30;;;;;;;;;;10486691;28;20033;-57
2022/08/16 15:38:57;;;;;;;1.15;1.02;;;;;;;;;;10464941;28;20017;-59
2022/08/16 15:43:58;;;;;;;1.83;1.52;;;;;;;;;;10482257;28;20032;-58
2022/08/16 15:48:59;;;;;;;1.55;1.30;;;;;;;;;;10488683;28;20507;-58
2022/08/16 15:54:00;;;;;;;3.65;1.30;;;;;;;;;;10489788;28;20089;-59
2022/08/16 15:59:03;;;;;;;1.40;1.30;;;;;;;;;;10489187;28;20025;-58
2022/08/16 16:04:03;;;;;;;3.45;1.30;;;;;;;;;;10488995;28;20048;-57
2022/08/16 16:09:04;;;;;;;1.58;1.40;;;;;;;;;;10463724;28;20032;-56
2022/08/16 16:14:05;;;;;;;1.25;1.15;;;;;;;;;;10475555;28;20099;-56
2022/08/16 16:19:05;;;;;;;1.55;1.42;;;;;;;;;;10474008;28;20517;-57
2022/08/16 16:24:06;;;;;;;1.50;1.25;;;;;;;;;;10489119;28;20599;-56
2022/08/16 16:29:07;;;;;;;1.30;1.20;;;;;;;;;;10466706;28;20025;-56
2022/08/16 16:34:08;;;;;;;2.08;1.40;;;;;;;;;;10475540;28;20059;-56
2022/08/16 16:39:09;;;;;;;2.40;1.42;;;;;;;;;;10480141;28;20448;-58
2022/08/16 16:44:10;;;;;;;1.48;1.20;;;;;;;;;;10474652;28;20029;-58
2022/08/16 16:49:13;;;;;;;1.58;1.48;;;;;;;;;;10484189;28;20430;-55
2022/08/16 16:54:15;;;;;;;1.40;1.30;;;;;;;;;;10467274;28;20273;-56
2022/08/16 16:59:18;;;;;;;2.03;1.33;;;;;;;;;;10473398;28;20040;-59
2022/08/16 17:04:22;;;;;;;3.10;1.38;;;;;;;;;;10489914;28;20037;-60
2022/08/16 17:09:23;;;;;;;4.22;1.40;;;;;;;;;;10483884;28;20036;-53
2022/08/16 17:14:25;;;;;;;1.95;1.15;;;;;;;;;;10485177;28;20484;-57
2022/08/16 17:19:25;;;;;;;3.08;1.50;;;;;;;;;;10494454;28;20442;-58
2022/08/16 17:24:27;;;;;;;2.03;1.40;;;;;;;;;;10494510;28;20035;-56
2022/08/16 17:29:28;;;;;;;2.00;1.40;;;;;;;;;;10494404;28;20059;-54
2022/08/16 17:34:29;;;;;;;1.42;1.30;;;;;;;;;;10480666;28;20498;-59
2022/08/16 17:39:31;;;;;;;9.77;2.38;;;;;;;;;;10494097;28;20025;-59
2022/08/16 17:44:31;;;;;;;5.90;2.10;;;;;;;;;;10472819;28;20032;-58
2022/08/16 17:49:32;;;;;;;4.18;1.70;;;;;;;;;;10493159;28;20472;-59
2022/08/16 17:54:32;;;;;;;4.70;2.22;;;;;;;;;;10490427;28;20032;-57
2022/08/16 17:59:33;;;;;;;7.95;2.30;;;;;;;;;;10492678;28;20029;-54
2022/08/16 18:04:34;;;;;;;5.78;2.00;;;;;;;;;;10489624;28;20125;-57
2022/08/16 18:09:35;;;;;;;5.18;2.10;;;;;;;;;;10490386;28;20043;-55
2022/08/16 18:14:35;;;;;;;2.15;1.70;;;;;;;;;;10492609;28;20024;-56
2022/08/16 18:19:36;;;;;;;4.53;1.83;;;;;;;;;;10486317;28;20029;-57
2022/08/16 18:24:36;;;;;;;4.88;2.25;;;;;;;;;;10484261;28;20417;-55
2022/08/16 18:29:37;;;;;;;6.63;2.20;;;;;;;;;;10484667;28;20052;-56
2022/08/16 18:34:39;;;;;;;12.15;2.38;;;;;;;;;;10490648;28;20033;-56
2022/08/16 18:39:40;;;;;;;5.85;2.08;;;;;;;;;;10490466;28;20388;-58
2022/08/16 18:44:42;;;;;;;3.53;2.00;;;;;;;;;;10490982;28;20032;-57
2022/08/16 18:49:43;;;;;;;3.50;1.88;;;;;;;;;;10490164;28;20460;-56
2022/08/16 18:54:44;;;;;;;7.05;1.90;;;;;;;;;;10490370;28;20036;-57
2022/08/16 18:59:44;;;;;;;4.63;2.10;;;;;;;;;;10488726;28;20043;-58
2022/08/16 19:04:45;;;;;;;3.72;2.15;;;;;;;;;;10484770;28;20492;-58
2022/08/16 19:09:46;;;;;;;5.15;2.30;;;;;;;;;;10477842;28;20032;-59
2022/08/16 19:14:46;;;;;;;4.80;2.10;;;;;;;;;;10474521;28;20463;-58
2022/08/16 19:19:47;;;;;;;3.10;1.90;;;;;;;;;;10486578;28;20259;-58
2022/08/16 19:24:47;;;;;;;4.40;1.98;;;;;;;;;;10489124;28;20036;-58
2022/08/16 19:29:48;;;;;;;2.75;1.80;;;;;;;;;;10482703;28;20521;-58
2022/08/16 19:34:56;;;;;;;5.93;2.33;;;;;;;;;;10468732;28;20464;-58
2022/08/16 19:39:57;;;;;;;3.08;2.03;;;;;;;;;;10462930;28;20035;-58
2022/08/16 19:44:58;;;;;;;2.92;1.75;;;;;;;;;;10478908;28;20024;-59
2022/08/16 19:49:59;;;;;;;3.53;2.15;;;;;;;;;;10481729;28;20036;-58
2022/08/16 19:55:03;;;;;;;5.05;1.92;;;;;;;;;;10484782;28;20480;-58
2022/08/16 20:00:16;;;;;;;2.60;1.88;;;;;;;;;;10478938;28;20037;-58
2022/08/16 20:05:31;;;;;;;3.35;1.67;;;;;;;;;;10486477;28;20040;-58
2022/08/16 20:10:32;;;;;;;2.63;1.70;;;;;;;;;;10485962;28;20052;-58
2022/08/16 20:15:33;;;;;;;3.67;1.92;;;;;;;;;;10482983;28;20028;-58
2022/08/16 20:20:34;;;;;;;4.55;1.95;;;;;;;;;;10487398;28;20066;-58
2022/08/16 20:25:34;;;;;;;3.63;2.20;;;;;;;;;;10473367;28;21514;-58
2022/08/16 20:30:35;;;;;;;2.17;1.67;;;;;;;;;;10489247;28;20029;-58
2022/08/16 20:35:36;;;;;;;3.45;2.05;;;;;;;;;;10478986;28;20047;-58
2022/08/16 20:40:36;;;;;;;3.38;2.10;;;;;;;;;;10492411;28;20028;-58
2022/08/16 20:45:41;;;;;;;4.85;1.77;;;;;;;;;;10492520;28;20032;-54
2022/08/16 20:50:42;;;;;;;1.95;1.60;;;;;;;;;;10473624;28;20037;-58
2022/08/16 20:55:44;;;;;;;3.17;1.80;;;;;;;;;;10487512;28;20262;-57
2022/08/16 21:00:45;;;;;;;3.70;2.00;;;;;;;;;;10494269;28;20032;-58
2022/08/16 21:05:46;;;;;;;5.50;2.03;;;;;;;;;;10487278;28;20122;-58
2022/08/16 21:10:47;;;;;;;3.83;1.88;;;;;;;;;;10483331;28;20086;-58
2022/08/16 21:15:48;;;;;;;2.65;1.58;;;;;;;;;;10487072;28;20029;-58
2022/08/16 21:20:48;;;;;;;2.17;1.60;;;;;;;;;;10486201;28;20035;-58
2022/08/16 21:25:49;;;;;;;2.70;1.92;;;;;;;;;;10477830;28;20512;-56
2022/08/16 21:30:50;;;;;;;4.25;2.22;;;;;;;;;;10473148;28;20032;-56
2022/08/16 21:35:52;;;;;;;2.60;2.08;;;;;;;;;;10481361;28;20025;-57
2022/08/16 21:40:53;;;;;;;3.47;2.30;;;;;;;;;;10487330;28;20040;-56
2022/08/16 21:45:53;;;;;;;2.15;1.95;;;;;;;;;;10480565;28;20024;-57
2022/08/16 21:50:54;;;;;;;4.70;2.30;;;;;;;;;;10488091;28;20036;-57
2022/08/16 21:55:57;;;;;;;4.03;2.10;;;;;;;;;;10486434;28;20111;-57
2022/08/16 22:01:00;;;;;;;3.15;2.10;;;;;;;;;;10486012;28;20484;-56
2022/08/16 22:06:00;;;;;;;4.15;2.08;;;;;;;;;;10468072;28;20120;-57
2022/08/16 22:11:02;;;;;;;3.10;2.10;;;;;;;;;;10461719;28;20064;-55
2022/08/16 22:16:03;;;;;;;2.88;2.20;;;;;;;;;;10465036;28;20049;-57
2022/08/16 22:21:04;;;;;;;4.03;1.92;;;;;;;;;;10461978;28;20053;-57
2022/08/16 22:26:04;;;;;;;3.00;2.08;;;;;;;;;;10459533;28;20025;-56
2022/08/16 22:31:05;;;;;;;3.60;1.77;;;;;;;;;;10460824;28;20116;-57
2022/08/16 22:36:06;;;;;;;1.90;1.75;;;;;;;;;;10473205;28;20089;-58
2022/08/16 22:41:07;;;;;;;2.95;1.70;;;;;;;;;;10471453;28;20051;-58
2022/08/16 22:46:07;;;;;;;2.78;1.73;;;;;;;;;;10469868;28;20024;-58
2022/08/16 22:51:08;;;;;;;2.97;1.70;;;;;;;;;;10465196;28;20028;-58
2022/08/16 22:56:09;;;;;;;4.95;1.60;;;;;;;;;;10464490;28;20036;-58
2022/08/16 23:01:11;;;;;;;2.67;1.73;;;;;;;;;;10467055;28;20040;-57
2022/08/16 23:06:12;;;;;;;2.28;1.60;;;;;;;;;;10457916;28;20502;-57
2022/08/16 23:11:21;;;;;;;2.47;1.85;;;;;;;;;;10454033;28;20380;-57
2022/08/16 23:16:28;;;;;;;3.08;1.80;;;;;;;;;;10471286;28;20032;-57
2022/08/16 23:21:30;;;;;;;;;;;;;;;;;;10486697;28;20024;-58
2022/08/16 23:26:31;;;;;;;2.60;1.70;;;;;;;;;;10476919;28;19912;-58
2022/08/16 23:31:32;;;;;;;1.90;1.77;;;;;;;;;;10487410;28;20384;-57
2022/08/16 23:36:33;;;;;;;1.88;1.55;;;;;;;;;;10487156;28;20507;-58
2022/08/16 23:41:33;;;;;;;3.25;1.85;;;;;;;;;;10487178;28;20025;-58
2022/08/16 23:46:34;;;;;;;2.40;1.70;;;;;;;;;;10489141;28;20040;-58
2022/08/16 23:51:35;;;;;;;2.78;1.70;;;;;;;;;;10487594;28;20028;-57
2022/08/16 23:56:35;;;;;;;2.05;1.85;;;;;;;;;;10483200;28;20028;-56
